Time;durP1;ratioP1;P1;durP2;ratioP2;P2;SDS_P1;SDS_P2;PMS_P1;PMS_P2;Temp;Humidity;BMP_temperature;BMP_pressure;BME280_temperature;BME280_humidity;BME280_pressure;Samples;Min_cycle;Max_cycle;Signal;HPM_P1;HPM_P2
2023/01/17 00:02:02;;;;;;;68.25;29.25;;;7.90;99.90;;;;;;4959331;29;20142;-82
2023/01/17 00:10:07;;;;;;;147.65;45.33;;;7.90;99.90;;;;;;4958587;28;20089;-81
2023/01/17 00:12:34;;;;;;;227.87;61.10;;;7.90;99.90;;;;;;4941786;29;20030;-83
2023/01/17 00:15:00;;;;;;;222.45;61.00;;;7.90;99.90;;;;;;4941552;29;20366;-82
2023/01/17 00:17:27;;;;;;;195.20;53.25;;;7.90;99.90;;;;;;4958635;29;20026;-82
2023/01/17 01:35:20;;;;;;;40.47;17.45;;;7.90;99.90;;;;;;4956057;29;20033;-83
2023/01/17 01:37:46;;;;;;;32.92;15.55;;;7.90;99.90;;;;;;4955125;28;20035;-83
2023/01/17 01:40:12;;;;;;;32.28;14.48;;;7.90;99.90;;;;;;4956345;29;20023;-82
2023/01/17 01:42:49;;;;;;;41.88;17.80;;;7.90;99.90;;;;;;4938426;29;20059;-82
2023/01/17 01:45:23;;;;;;;25.50;13.38;;;7.80;99.90;;;;;;4939204;29;20035;-83
2023/01/17 01:47:53;;;;;;;37.97;16.75;;;7.80;99.90;;;;;;4939248;29;20089;-83
2023/01/17 01:50:21;;;;;;;43.70;18.75;;;7.70;99.90;;;;;;4955810;29;20042;-82
2023/01/17 01:52:50;;;;;;;18.33;8.57;;;7.70;99.90;;;;;;4939355;29;20019;-82
2023/01/17 01:55:24;;;;;;;24.27;10.98;;;7.60;99.90;;;;;;4955205;28;20047;-82
2023/01/17 01:57:54;;;;;;;15.63;7.03;;;7.60;99.90;;;;;;4956087;29;20019;-83
2023/01/17 02:00:28;;;;;;;11.20;6.07;;;7.60;99.90;;;;;;4956455;29;20031;-83
2023/01/17 02:02:57;;;;;;;13.30;6.22;;;7.60;99.90;;;;;;4933184;29;20027;-83
2023/01/17 02:05:25;;;;;;;11.38;5.40;;;7.60;99.90;;;;;;4938760;29;20032;-82
2023/01/17 02:07:54;;;;;;;11.60;6.13;;;7.60;99.90;;;;;;4955774;29;20106;-82
2023/01/17 02:10:20;;;;;;;12.48;5.93;;;7.70;99.90;;;;;;4955330;28;20043;-82
2023/01/17 02:12:46;;;;;;;14.52;6.90;;;7.70;99.90;;;;;;4939126;29;20034;-82
2023/01/17 02:15:12;;;;;;;13.32;5.03;;;7.70;99.90;;;;;;4956607;29;20031;-83
2023/01/17 02:18:25;;;;;;;12.02;6.10;;;7.70;99.90;;;;;;4947381;29;20020;-83
2023/01/17 02:20:57;;;;;;;;;;;7.80;99.90;;;;;;4927020;29;20119;-83
2023/01/17 02:23:43;;;;;;;;;;;7.80;99.90;;;;;;4920741;29;20374;-82
2023/01/17 02:26:34;;;;;;;11.45;5.13;;;7.80;99.90;;;;;;4937239;29;19914;-81
2023/01/17 02:29:18;;;;;;;11.68;5.13;;;7.80;99.90;;;;;;4922851;29;20023;-83
2023/01/17 02:32:02;;;;;;;8.70;4.57;;;7.80;99.90;;;;;;4956221;29;20521;-82
2023/01/17 02:34:44;;;;;;;9.52;4.90;;;7.80;99.90;;;;;;4956064;29;20030;-80
2023/01/17 02:37:18;;;;;;;12.20;5.53;;;7.90;99.90;;;;;;4951693;29;20473;-82
2023/01/17 02:40:25;;;;;;;16.33;6.30;;;7.90;99.90;;;;;;4938374;29;20027;-82
2023/01/17 02:43:01;;;;;;;13.95;6.85;;;8.00;99.90;;;;;;4950773;29;20023;-81
2023/01/17 02:45:27;;;;;;;13.48;6.30;;;7.90;99.90;;;;;;4955038;29;20473;-84
2023/01/17 02:47:53;;;;;;;12.13;5.68;;;7.90;99.90;;;;;;4955682;29;20059;-83
2023/01/17 02:50:33;;;;;;;10.45;5.43;;;8.00;99.90;;;;;;4937980;29;20451;-83
2023/01/17 02:53:32;;;;;;;27.02;11.35;;;8.10;99.90;;;;;;4938062;29;20106;-82
2023/01/17 02:56:35;;;;;;;34.13;11.85;;;8.00;99.90;;;;;;4954992;29;20058;-83
2023/01/17 02:59:24;;;;;;;27.20;10.20;;;7.80;99.90;;;;;;4950213;29;20023;-82
2023/01/17 03:02:13;;;;;;;66.40;27.90;;;7.70;99.90;;;;;;4938315;29;20019;-82
2023/01/17 03:05:02;;;;;;;124.15;40.08;;;7.60;99.90;;;;;;4950691;29;20102;-82
2023/01/17 03:07:29;;;;;;;139.20;46.17;;;7.50;99.90;;;;;;4937767;29;20039;-84
2023/01/17 03:09:58;;;;;;;175.98;64.55;;;7.50;99.90;;;;;;4954714;28;20039;-81
2023/01/17 03:12:33;;;;;;;109.40;42.40;;;7.40;99.90;;;;;;4937731;29;20030;-82
2023/01/17 03:14:59;;;;;;;72.57;31.92;;;7.40;99.90;;;;;;4937557;29;20030;-82
2023/01/17 03:17:31;;;;;;;58.78;25.90;;;7.40;99.90;;;;;;4955056;29;20031;-82
2023/01/17 03:19:57;;;;;;;57.15;24.55;;;7.40;99.90;;;;;;4937634;29;20374;-82
2023/01/17 03:22:22;;;;;;;55.63;26.20;;;7.30;99.90;;;;;;4955063;29;20427;-83
2023/01/17 03:24:48;;;;;;;117.85;48.40;;;7.30;99.90;;;;;;4954628;29;20047;-82
2023/01/17 03:27:14;;;;;;;90.47;43.90;;;7.30;99.90;;;;;;4937635;29;20065;-82
2023/01/17 03:29:40;;;;;;;88.45;41.05;;;7.30;99.90;;;;;;4955013;29;20580;-83
2023/01/17 03:32:05;;;;;;;61.38;32.78;;;7.20;99.90;;;;;;4937527;29;20031;-83
2023/01/17 03:34:31;;;;;;;51.60;29.75;;;7.20;99.90;;;;;;4937683;29;20451;-83
2023/01/17 03:36:57;;;;;;;67.82;34.15;;;7.20;99.90;;;;;;4937591;29;20471;-82
2023/01/17 03:39:22;;;;;;;89.40;41.67;;;7.20;99.90;;;;;;4945107;29;20035;-85
2023/01/17 03:41:48;;;;;;;65.75;32.72;;;7.20;99.90;;;;;;4936268;29;20059;-84
2023/01/17 03:44:14;;;;;;;56.03;26.83;;;7.20;99.90;;;;;;4938226;29;20054;-83
2023/01/17 03:46:40;;;;;;;65.97;28.25;;;7.20;99.90;;;;;;4937861;29;20051;-83
2023/01/17 03:49:05;;;;;;;80.57;35.97;;;7.20;99.90;;;;;;4955291;29;20054;-83
2023/01/17 03:51:31;;;;;;;72.25;33.08;;;7.20;99.90;;;;;;4955592;29;20379;-83
2023/01/17 03:53:57;;;;;;;57.67;28.95;;;7.20;99.90;;;;;;4955111;29;20024;-83
2023/01/17 03:56:23;;;;;;;65.97;29.52;;;7.20;99.90;;;;;;4921763;29;20035;-85
2023/01/17 03:58:48;;;;;;;67.13;32.30;;;7.20;99.90;;;;;;4935945;29;20452;-82
2023/01/17 04:01:14;;;;;;;72.57;31.55;;;7.20;99.90;;;;;;4935975;29;20027;-83
2023/01/17 04:03:40;;;;;;;49.70;25.05;;;7.30;99.90;;;;;;4935763;29;20045;-83
2023/01/17 04:06:06;;;;;;;44.53;21.52;;;7.30;99.90;;;;;;4936061;29;20043;-83
2023/01/17 04:08:31;;;;;;;47.80;23.40;;;7.30;99.90;;;;;;4953183;29;20051;-82
2023/01/17 04:10:58;;;;;;;66.35;30.35;;;7.30;99.90;;;;;;4954556;28;20067;-83
2023/01/17 04:13:23;;;;;;;46.38;22.55;;;7.30;99.90;;;;;;4954699;29;20028;-81
2023/01/17 04:15:50;;;;;;;37.22;19.27;;;7.20;99.90;;;;;;4937212;29;20518;-82
2023/01/17 04:18:18;;;;;;;34.05;17.10;;;7.20;99.90;;;;;;4937729;29;20035;-85
2023/01/17 04:20:44;;;;;;;31.45;16.10;;;7.20;99.90;;;;;;4940789;29;20118;-83
2023/01/17 04:23:10;;;;;;;31.00;16.20;;;7.10;99.90;;;;;;4958034;29;20131;-83
2023/01/17 04:25:36;;;;;;;44.25;20.55;;;7.10;99.90;;;;;;4957740;29;20110;-83
2023/01/17 04:28:03;;;;;;;37.72;19.67;;;7.10;99.90;;;;;;4957667;29;20506;-83
2023/01/17 04:30:30;;;;;;;41.92;20.52;;;7.10;99.90;;;;;;4940545;29;20090;-83
2023/01/17 04:32:56;;;;;;;63.35;30.95;;;7.00;99.90;;;;;;4958270;29;20078;-83
2023/01/17 04:35:22;;;;;;;52.47;26.35;;;7.00;99.90;;;;;;4940560;29;20078;-83
2023/01/17 04:37:48;;;;;;;136.63;61.63;;;7.00;99.90;;;;;;4957566;29;20082;-82
2023/01/17 04:40:14;;;;;;;87.75;46.13;;;7.00;99.90;;;;;;4941213;29;20110;-82
2023/01/17 04:42:42;;;;;;;68.78;36.70;;;7.00;99.90;;;;;;4940875;29;20067;-83
2023/01/17 04:45:08;;;;;;;76.80;39.50;;;7.00;99.90;;;;;;4957477;29;20113;-83
2023/01/17 04:47:34;;;;;;;101.13;49.42;;;7.00;99.90;;;;;;4940200;29;20050;-83
2023/01/17 04:50:00;;;;;;;99.75;49.47;;;7.00;99.90;;;;;;4957756;29;20490;-83
2023/01/17 04:52:26;;;;;;;119.07;58.63;;;7.00;99.90;;;;;;4940302;29;20031;-82
2023/01/17 04:54:51;;;;;;;307.63;130.50;;;7.00;99.90;;;;;;4957645;29;20027;-84
2023/01/17 04:57:18;;;;;;;289.63;126.97;;;6.90;99.90;;;;;;4940188;29;20023;-83
2023/01/17 04:59:45;;;;;;;236.23;111.95;;;6.90;99.90;;;;;;4957203;29;20463;-83
2023/01/17 05:02:11;;;;;;;194.10;92.78;;;6.90;99.90;;;;;;4957046;29;20020;-83
2023/01/17 05:04:37;;;;;;;101.85;50.50;;;6.80;99.90;;;;;;4939753;29;20022;-84
2023/01/17 05:07:03;;;;;;;134.27;64.80;;;6.80;99.90;;;;;;4956981;29;20070;-84
2023/01/17 05:09:29;;;;;;;89.40;44.63;;;6.80;99.90;;;;;;4939864;28;20067;-84
2023/01/17 05:11:55;;;;;;;88.03;44.53;;;6.80;99.90;;;;;;4955110;29;20529;-83
2023/01/17 05:14:25;;;;;;;110.05;55.60;;;6.70;99.90;;;;;;4939537;29;20419;-83
2023/01/17 05:16:54;;;;;;;80.05;43.42;;;6.70;99.90;;;;;;4956975;29;20034;-84
2023/01/17 05:19:21;;;;;;;88.55;45.08;;;6.70;99.90;;;;;;4938978;29;20027;-84
2023/01/17 05:21:46;;;;;;;120.78;60.33;;;6.70;99.90;;;;;;4956971;29;20031;-85
2023/01/17 05:24:12;;;;;;;131.57;64.50;;;6.70;99.90;;;;;;4939696;29;20023;-85
2023/01/17 05:26:39;;;;;;;148.13;73.47;;;6.70;99.90;;;;;;4938547;29;20471;-84
2023/01/17 05:29:05;;;;;;;133.00;66.70;;;6.60;99.90;;;;;;4939592;28;20023;-84
2023/01/17 05:31:31;;;;;;;125.00;64.25;;;6.60;99.90;;;;;;4939776;29;20025;-85
2023/01/17 05:33:56;;;;;;;124.32;64.18;;;6.70;99.90;;;;;;4956916;29;20015;-85
2023/01/17 05:36:22;;;;;;;125.20;62.95;;;6.60;99.90;;;;;;4940238;29;20026;-84
2023/01/17 05:38:48;;;;;;;126.78;69.47;;;6.60;99.90;;;;;;4939614;29;20063;-84
2023/01/17 05:41:13;;;;;;;110.60;55.13;;;6.70;99.90;;;;;;4938754;29;20056;-84
2023/01/17 05:43:39;;;;;;;127.18;67.40;;;6.60;99.90;;;;;;4938942;29;20093;-83
2023/01/17 05:46:05;;;;;;;141.98;72.80;;;6.60;99.90;;;;;;4938943;29;20035;-87
2023/01/17 05:48:30;;;;;;;141.15;72.80;;;6.70;99.90;;;;;;4956537;29;20443;-85
2023/01/17 05:50:56;;;;;;;127.40;66.35;;;6.60;99.90;;;;;;4938279;29;20019;-85
2023/01/17 05:53:22;;;;;;;143.48;71.70;;;6.70;99.90;;;;;;4937712;29;20062;-85
2023/01/17 05:55:48;;;;;;;138.93;68.72;;;6.70;99.90;;;;;;4936394;29;20030;-86
2023/01/17 05:58:16;;;;;;;137.10;71.65;;;6.70;99.90;;;;;;4937070;29;20382;-84
2023/01/17 06:00:43;;;;;;;156.27;78.82;;;6.70;99.90;;;;;;4939217;29;20562;-84
2023/01/17 06:03:10;;;;;;;146.93;76.78;;;6.70;99.90;;;;;;4938708;29;20027;-85
2023/01/17 06:05:36;;;;;;;139.05;73.75;;;6.70;99.90;;;;;;4956830;29;20027;-84
2023/01/17 06:08:02;;;;;;;140.43;71.50;;;6.80;99.90;;;;;;4956665;29;20023;-86
2023/01/17 06:10:28;;;;;;;143.27;76.78;;;6.70;99.90;;;;;;4956811;28;20083;-85
2023/01/17 06:13:09;;;;;;;123.60;64.03;;;6.70;99.90;;;;;;4939122;29;20086;-84
2023/01/17 06:15:37;;;;;;;209.23;99.53;;;6.80;99.90;;;;;;4937651;29;20019;-86
2023/01/17 06:18:04;;;;;;;171.63;84.55;;;6.80;99.90;;;;;;4939051;29;20023;-85
2023/01/17 06:20:30;;;;;;;195.55;91.07;;;6.70;99.90;;;;;;4939016;29;20023;-85
2023/01/17 06:22:58;;;;;;;138.10;67.72;;;6.80;99.90;;;;;;4956259;29;20050;-85
2023/01/17 06:25:23;;;;;;;123.63;62.38;;;6.80;99.90;;;;;;4939290;29;20054;-85
2023/01/17 06:27:53;;;;;;;212.68;104.30;;;6.80;99.90;;;;;;4923688;29;20062;-85
2023/01/17 06:30:19;;;;;;;172.48;85.50;;;6.80;99.90;;;;;;4939096;29;20023;-84
2023/01/17 06:32:51;;;;;;;147.38;75.47;;;6.80;99.90;;;;;;4939117;29;20090;-83
2023/01/17 06:35:17;;;;;;;152.60;81.00;;;6.80;99.90;;;;;;4939256;29;20058;-85
2023/01/17 06:37:42;;;;;;;140.00;70.13;;;6.80;99.90;;;;;;4938922;29;20469;-84
2023/01/17 06:40:09;;;;;;;131.63;66.15;;;6.80;99.90;;;;;;4955985;29;20027;-85
2023/01/17 06:42:34;;;;;;;125.75;63.88;;;6.90;99.90;;;;;;4956052;28;20027;-85
2023/01/17 06:45:00;;;;;;;136.20;66.65;;;6.90;99.90;;;;;;4938738;29;20439;-86
2023/01/17 06:47:26;;;;;;;133.73;62.67;;;6.90;99.90;;;;;;4938857;29;20023;-84
2023/01/17 06:49:51;;;;;;;124.28;60.92;;;7.00;99.90;;;;;;4955714;29;20102;-85
2023/01/17 06:52:17;;;;;;;126.70;60.22;;;7.00;99.90;;;;;;4938937;29;20042;-84
2023/01/17 06:54:43;;;;;;;112.40;56.75;;;7.00;99.90;;;;;;4938964;29;20029;-83
2023/01/17 06:57:08;;;;;;;124.72;58.83;;;7.00;99.90;;;;;;4955613;29;20093;-84
2023/01/17 06:59:34;;;;;;;118.95;57.63;;;7.00;99.90;;;;;;4938841;29;20034;-87
2023/01/17 07:02:00;;;;;;;119.22;61.72;;;7.10;99.90;;;;;;4938649;29;20055;-85
2023/01/17 07:04:26;;;;;;;106.47;50.30;;;7.00;99.90;;;;;;4938540;29;20514;-83
2023/01/17 07:06:51;;;;;;;142.95;67.57;;;7.10;99.90;;;;;;4955875;29;20027;-83
2023/01/17 07:09:17;;;;;;;154.50;77.97;;;7.10;99.90;;;;;;4955302;28;20474;-85
2023/01/17 07:11:44;;;;;;;144.93;70.13;;;7.10;99.90;;;;;;4938681;29;20035;-85
2023/01/17 07:14:13;;;;;;;141.13;69.13;;;7.10;99.90;;;;;;4938601;29;20466;-84
2023/01/17 07:16:39;;;;;;;111.75;52.95;;;7.10;99.90;;;;;;4938459;29;20031;-84
2023/01/17 07:19:05;;;;;;;127.28;65.63;;;7.10;99.90;;;;;;4938387;29;20020;-83
2023/01/17 07:21:30;;;;;;;66.80;32.63;;;7.10;99.90;;;;;;4956034;29;20020;-85
2023/01/17 07:23:56;;;;;;;79.10;35.78;;;7.20;99.90;;;;;;4938391;29;20430;-84
2023/01/17 07:26:22;;;;;;;78.18;34.17;;;7.20;99.90;;;;;;4938267;29;20118;-83
2023/01/17 07:28:47;;;;;;;75.20;37.15;;;7.30;99.90;;;;;;4938550;29;20028;-85
2023/01/17 07:31:13;;;;;;;71.32;36.25;;;7.40;99.90;;;;;;4938485;29;20124;-84
2023/01/17 07:33:39;;;;;;;102.65;47.63;;;7.40;99.90;;;;;;4955741;29;20023;-84
2023/01/17 07:36:08;;;;;;;102.45;50.40;;;7.50;99.90;;;;;;4955544;29;20050;-84
2023/01/17 07:38:35;;;;;;;179.45;104.80;;;7.50;99.90;;;;;;4938477;29;20419;-84
2023/01/17 07:41:00;;;;;;;79.95;38.25;;;7.60;99.90;;;;;;4955436;29;20055;-84
2023/01/17 07:43:26;;;;;;;90.22;35.63;;;7.60;99.90;;;;;;4938509;29;20058;-83
2023/01/17 07:45:52;;;;;;;84.72;39.10;;;7.70;99.90;;;;;;4955481;29;20062;-83
2023/01/17 07:48:20;;;;;;;53.38;22.42;;;7.80;99.90;;;;;;4938368;29;20050;-87
2023/01/17 07:50:56;;;;;;;27.13;12.73;;;7.90;99.90;;;;;;4938361;29;20027;-83
2023/01/17 07:53:24;;;;;;;51.40;18.95;;;8.00;99.90;;;;;;4955755;28;20055;-84
2023/01/17 07:55:50;;;;;;;65.10;23.48;;;8.10;99.90;;;;;;4959323;29;20023;-85
2023/01/17 07:58:15;;;;;;;65.68;25.77;;;8.20;99.90;;;;;;4941856;29;20122;-84
2023/01/17 08:00:43;;;;;;;62.75;22.92;;;8.30;99.90;;;;;;4958835;29;20367;-84
2023/01/17 08:03:13;;;;;;;106.18;38.72;;;8.30;99.90;;;;;;4941990;29;20027;-83
2023/01/17 08:05:39;;;;;;;56.28;25.17;;;8.40;99.90;;;;;;4958847;29;20382;-84
2023/01/17 08:08:05;;;;;;;83.13;32.80;;;8.80;99.90;;;;;;4941614;29;20027;-85
2023/01/17 08:10:31;;;;;;;51.38;23.73;;;9.10;99.90;;;;;;4941576;29;20525;-85
2023/01/17 08:12:56;;;;;;;77.78;38.85;;;9.20;99.90;;;;;;4941615;29;20031;-86
2023/01/17 08:15:25;;;;;;;55.22;23.95;;;9.40;99.90;;;;;;4941487;29;20027;-85
2023/01/17 08:17:56;;;;;;;65.03;28.95;;;9.50;99.90;;;;;;4941552;29;20602;-84
2023/01/17 08:20:22;;;;;;;38.00;18.77;;;9.40;99.90;;;;;;4942000;29;20035;-84
2023/01/17 08:22:52;;;;;;;44.22;20.58;;;9.40;99.90;;;;;;4941413;29;20114;-84
2023/01/17 08:25:18;;;;;;;35.42;16.75;;;9.80;99.90;;;;;;4958569;29;20028;-86
2023/01/17 08:27:43;;;;;;;32.28;17.02;;;9.90;99.90;;;;;;4958247;29;20030;-83
2023/01/17 08:30:10;;;;;;;20.23;10.48;;;10.20;99.90;;;;;;4958803;29;20019;-84
2023/01/17 08:32:39;;;;;;;17.23;10.23;;;10.10;99.90;;;;;;4958587;29;20029;-83
2023/01/17 08:35:06;;;;;;;16.65;9.30;;;10.20;99.90;;;;;;4958632;29;20019;-82
2023/01/17 08:37:32;;;;;;;78.03;29.13;;;10.30;99.90;;;;;;4941525;29;20026;-82
2023/01/17 08:39:57;;;;;;;14.52;7.55;;;10.30;99.90;;;;;;4940518;29;20121;-83
2023/01/17 08:42:23;;;;;;;29.73;11.90;;;10.20;99.90;;;;;;4941086;29;20033;-84
2023/01/17 08:44:49;;;;;;;96.55;40.55;;;10.40;99.90;;;;;;4941331;29;20038;-82
2023/01/17 08:47:15;;;;;;;117.82;46.63;;;10.70;99.90;;;;;;4940919;29;20478;-83
2023/01/17 08:49:40;;;;;;;25.45;12.68;;;10.80;99.90;;;;;;4940950;29;20019;-83
2023/01/17 08:52:06;;;;;;;16.48;8.35;;;10.80;99.90;;;;;;4958090;29;20054;-83
2023/01/17 08:54:32;;;;;;;12.38;5.88;;;10.70;99.90;;;;;;4940617;29;20027;-83
2023/01/17 08:56:58;;;;;;;12.48;6.30;;;10.60;99.90;;;;;;4940887;29;20023;-82
2023/01/17 08:59:23;;;;;;;18.17;9.52;;;10.50;99.90;;;;;;4958554;29;20031;-82
2023/01/17 09:01:51;;;;;;;17.30;7.65;;;10.40;99.90;;;;;;4940814;29;20027;-82
2023/01/17 09:04:17;;;;;;;20.08;9.90;;;10.30;99.90;;;;;;4957170;28;20081;-82
2023/01/17 09:06:47;;;;;;;32.17;16.33;;;10.30;99.90;;;;;;4940741;29;20035;-81
2023/01/17 09:09:15;;;;;;;9.70;5.85;;;10.20;99.90;;;;;;4940700;28;20077;-82
2023/01/17 09:11:40;;;;;;;30.23;15.02;;;10.20;99.90;;;;;;4940724;29;20023;-81
2023/01/17 09:14:06;;;;;;;18.45;10.20;;;10.20;99.90;;;;;;4940619;29;20343;-82
2023/01/17 09:16:32;;;;;;;53.95;24.80;;;10.10;99.90;;;;;;4957603;29;20455;-82
2023/01/17 09:18:59;;;;;;;50.70;28.13;;;10.20;99.90;;;;;;4957199;29;20019;-81
2023/01/17 09:21:25;;;;;;;14.90;6.72;;;10.30;99.90;;;;;;4957136;29;20027;-80
2023/01/17 09:23:52;;;;;;;8.82;5.78;;;10.60;99.90;;;;;;4957264;29;20443;-82
2023/01/17 09:26:20;;;;;;;14.40;8.38;;;10.90;99.90;;;;;;4957667;29;20042;-83
2023/01/17 09:28:46;;;;;;;16.00;9.55;;;11.10;99.90;;;;;;4957281;29;20027;-80
2023/01/17 09:31:11;;;;;;;37.10;18.88;;;11.30;99.90;;;;;;4940164;29;20475;-81
2023/01/17 09:33:39;;;;;;;47.83;22.27;;;11.30;99.90;;;;;;4940319;29;20027;-81
2023/01/17 09:36:05;;;;;;;34.75;17.38;;;11.20;99.90;;;;;;4940223;29;20094;-81
2023/01/17 09:38:32;;;;;;;48.40;21.15;;;11.10;99.90;;;;;;4957300;29;20030;-82
2023/01/17 09:41:00;;;;;;;30.27;15.25;;;11.10;99.90;;;;;;4940154;29;20027;-80
2023/01/17 09:43:45;;;;;;;16.15;8.05;;;11.00;99.90;;;;;;4940189;29;20042;-81
2023/01/17 09:46:21;;;;;;;15.30;6.93;;;11.00;99.90;;;;;;4957076;29;20090;-81
2023/01/17 09:48:50;;;;;;;13.70;7.25;;;11.00;99.90;;;;;;4939974;29;20055;-80
2023/01/17 09:51:25;;;;;;;15.55;8.38;;;11.00;99.90;;;;;;4940018;29;20058;-81
2023/01/17 09:53:52;;;;;;;26.70;12.57;;;11.00;99.90;;;;;;4939842;29;20347;-80
2023/01/17 09:56:28;;;;;;;52.00;23.77;;;11.10;99.90;;;;;;4956534;29;20031;-80
2023/01/17 09:59:23;;;;;;;34.60;16.45;;;11.30;99.90;;;;;;4956686;29;20019;-80
2023/01/17 10:01:58;;;;;;;45.20;22.45;;;11.40;99.90;;;;;;4956833;29;20079;-81
2023/01/17 10:04:55;;;;;;;61.53;29.23;;;11.50;99.90;;;;;;4957000;29;20367;-80
2023/01/17 10:07:24;;;;;;;36.45;19.60;;;11.80;99.90;;;;;;4956360;29;20113;-79
2023/01/17 10:10:22;;;;;;;35.90;19.88;;;12.00;99.90;;;;;;4956803;28;20513;-79
2023/01/17 10:12:56;;;;;;;41.58;19.20;;;12.10;99.90;;;;;;4956765;29;20020;-79
2023/01/17 10:15:49;;;;;;;32.83;16.73;;;12.00;99.90;;;;;;4956843;28;20045;-80
2023/01/17 10:18:32;;;;;;;20.73;9.57;;;11.80;99.90;;;;;;4956161;29;20462;-79
2023/01/17 10:20:58;;;;;;;31.35;17.20;;;11.80;99.90;;;;;;4956769;29;20102;-79
2023/01/17 10:23:33;;;;;;;33.25;19.15;;;11.80;99.90;;;;;;4939460;29;20119;-79
2023/01/17 10:26:16;;;;;;;57.63;28.15;;;11.80;99.90;;;;;;4956283;29;20035;-81
2023/01/17 10:28:50;;;;;;;100.72;46.60;;;11.80;99.90;;;;;;4956080;29;20027;-82
2023/01/17 10:31:34;;;;;;;88.50;42.90;;;11.90;99.90;;;;;;4956442;29;20039;-80
2023/01/17 10:34:11;;;;;;;92.97;41.22;;;11.90;99.90;;;;;;4956250;29;20019;-80
2023/01/17 10:36:42;;;;;;;92.90;41.40;;;11.90;99.90;;;;;;4939277;29;20031;-81
2023/01/17 10:39:25;;;;;;;105.13;45.80;;;12.00;99.90;;;;;;4939129;29;20027;-80
2023/01/17 10:42:18;;;;;;;77.93;38.47;;;12.00;99.90;;;;;;4956147;29;20403;-82
2023/01/17 10:45:02;;;;;;;81.82;34.83;;;12.00;99.90;;;;;;4956240;29;20027;-80
2023/01/17 10:47:33;;;;;;;78.40;33.00;;;11.90;99.90;;;;;;4939095;29;20360;-81
2023/01/17 10:50:02;;;;;;;101.40;38.88;;;11.80;99.90;;;;;;4955980;29;20015;-80
2023/01/17 10:52:45;;;;;;;62.17;28.17;;;11.80;99.90;;;;;;4938854;29;20023;-80
2023/01/17 10:55:20;;;;;;;59.40;26.52;;;11.80;99.90;;;;;;4938715;29;20098;-80
2023/01/17 10:57:47;;;;;;;51.92;23.38;;;11.70;99.90;;;;;;4938866;29;20059;-80
2023/01/17 11:00:42;;;;;;;69.35;29.10;;;11.70;99.90;;;;;;4955940;29;20058;-80
2023/01/17 11:03:11;;;;;;;61.08;28.70;;;11.70;99.90;;;;;;4951335;29;20027;-81
2023/01/17 11:05:37;;;;;;;59.13;27.10;;;11.70;99.90;;;;;;4938716;29;20035;-80
2023/01/17 11:08:12;;;;;;;46.03;20.60;;;11.70;99.90;;;;;;4938645;29;20057;-80
2023/01/17 11:10:48;;;;;;;42.88;21.15;;;11.80;99.90;;;;;;4937961;29;20043;-80
2023/01/17 11:13:22;;;;;;;44.95;24.95;;;11.90;99.90;;;;;;4955874;29;20051;-81
2023/01/17 11:15:52;;;;;;;48.25;24.98;;;11.90;99.90;;;;;;4938528;29;20466;-80
2023/01/17 11:18:20;;;;;;;50.00;23.75;;;11.90;99.90;;;;;;4938099;29;20026;-81
2023/01/17 11:20:47;;;;;;;40.22;21.17;;;11.90;99.90;;;;;;4955064;29;20399;-80
2023/01/17 11:23:24;;;;;;;29.17;16.13;;;11.80;99.90;;;;;;4955316;29;20031;-80
2023/01/17 11:26:01;;;;;;;45.83;19.77;;;11.70;99.90;;;;;;4955568;29;20039;-80
2023/01/17 11:28:32;;;;;;;36.53;18.20;;;11.60;99.90;;;;;;4942416;29;20023;-81
2023/01/17 11:31:06;;;;;;;48.03;26.20;;;11.50;99.90;;;;;;4944706;29;20051;-80
2023/01/17 11:33:48;;;;;;;84.63;37.40;;;11.40;99.90;;;;;;4961710;28;20015;-81
2023/01/17 11:36:26;;;;;;;65.25;33.45;;;11.30;99.90;;;;;;4945199;29;20027;-81
2023/01/17 11:39:03;;;;;;;75.43;40.80;;;11.20;99.90;;;;;;4944631;28;20023;-80
2023/01/17 11:41:38;;;;;;;90.50;48.33;;;11.20;99.90;;;;;;4961703;29;20404;-80
2023/01/17 11:44:26;;;;;;;75.35;41.40;;;11.20;99.90;;;;;;4961880;28;20023;-81
2023/01/17 11:47:11;;;;;;;69.70;33.55;;;11.20;99.90;;;;;;4944752;29;20027;-81
2023/01/17 11:49:38;;;;;;;54.97;25.58;;;11.20;99.90;;;;;;4962217;29;20027;-80
2023/01/17 11:52:30;;;;;;;43.88;21.75;;;11.10;99.90;;;;;;4944533;29;20459;-80
2023/01/17 11:54:56;;;;;;;49.63;27.45;;;11.10;99.90;;;;;;4961737;29;20016;-80
2023/01/17 11:57:26;;;;;;;69.95;37.33;;;11.00;99.90;;;;;;4943671;29;20031;-80
2023/01/17 12:00:18;;;;;;;65.00;36.17;;;10.90;99.90;;;;;;4961432;29;20124;-81
2023/01/17 12:03:04;;;;;;;48.40;23.85;;;10.90;99.90;;;;;;4961875;29;20062;-82
2023/01/17 12:05:36;;;;;;;68.88;34.75;;;10.80;99.90;;;;;;4961710;29;20059;-80
2023/01/17 12:08:20;;;;;;;72.65;31.73;;;10.80;99.90;;;;;;4962167;29;20027;-81
2023/01/17 12:11:01;;;;;;;77.90;33.88;;;10.80;99.90;;;;;;4943028;29;20075;-80
2023/01/17 12:14:02;;;;;;;66.07;34.35;;;10.70;99.90;;;;;;4944562;29;20050;-80
2023/01/17 12:16:33;;;;;;;63.80;34.28;;;10.70;99.90;;;;;;4962065;29;20062;-80
2023/01/17 12:19:31;;;;;;;56.10;30.75;;;10.60;99.90;;;;;;4944308;29;20119;-81
2023/01/17 12:22:09;;;;;;;53.28;26.75;;;10.60;99.90;;;;;;4944460;29;20054;-80
2023/01/17 12:24:59;;;;;;;77.93;31.77;;;10.60;99.90;;;;;;4944367;29;20473;-81
2023/01/17 12:27:40;;;;;;;69.40;33.90;;;10.60;99.90;;;;;;4944212;29;20035;-81
2023/01/17 12:30:18;;;;;;;93.05;44.55;;;10.60;99.90;;;;;;4943999;29;20026;-80
2023/01/17 12:33:11;;;;;;;119.25;56.92;;;10.60;99.90;;;;;;4944250;28;20059;-80
2023/01/17 12:36:07;;;;;;;133.18;64.28;;;10.60;99.90;;;;;;4944353;29;20510;-82
2023/01/17 12:38:38;;;;;;;138.48;56.45;;;10.70;99.90;;;;;;4942994;28;20126;-81
2023/01/17 12:41:11;;;;;;;171.35;72.40;;;10.70;99.90;;;;;;4957723;29;20184;-81
2023/01/17 12:43:39;;;;;;;128.90;60.63;;;10.70;99.90;;;;;;4958616;29;20486;-80
2023/01/17 12:46:20;;;;;;;126.38;59.13;;;10.80;99.90;;;;;;4941031;29;20031;-80
2023/01/17 12:48:51;;;;;;;118.30;57.00;;;10.80;99.90;;;;;;4940994;29;20023;-80
2023/01/17 12:51:31;;;;;;;82.47;41.55;;;10.90;99.90;;;;;;4958315;29;20015;-80
2023/01/17 12:54:01;;;;;;;149.70;69.75;;;11.00;99.90;;;;;;4958149;29;20475;-81
2023/01/17 12:56:45;;;;;;;128.68;59.25;;;11.00;99.90;;;;;;4941598;29;20414;-81
2023/01/17 12:59:19;;;;;;;192.63;94.65;;;11.10;99.90;;;;;;4958194;29;20023;-81
2023/01/17 13:01:58;;;;;;;135.82;61.17;;;11.10;99.90;;;;;;4958090;29;20027;-80
2023/01/17 13:04:52;;;;;;;145.18;71.38;;;11.10;99.90;;;;;;4957894;29;20019;-80
2023/01/17 13:07:35;;;;;;;82.43;38.95;;;11.20;99.90;;;;;;4957853;29;20055;-81
2023/01/17 13:10:19;;;;;;;84.32;42.60;;;11.20;99.90;;;;;;4957701;28;20042;-80
2023/01/17 13:12:46;;;;;;;94.95;48.20;;;11.10;99.90;;;;;;4940655;29;20054;-80
2023/01/17 13:15:17;;;;;;;63.08;31.95;;;11.10;99.90;;;;;;4940479;29;20110;-80
2023/01/17 13:17:51;;;;;;;63.78;31.23;;;11.10;99.90;;;;;;4940679;29;20399;-80
2023/01/17 13:20:21;;;;;;;73.32;32.67;;;11.20;99.90;;;;;;4957686;29;20019;-81
2023/01/17 13:22:48;;;;;;;65.20;31.80;;;11.10;99.90;;;;;;4940279;29;20122;-80
2023/01/17 13:25:32;;;;;;;69.22;33.28;;;11.10;99.90;;;;;;4957371;29;20059;-80
2023/01/17 13:28:21;;;;;;;60.55;31.08;;;11.20;99.90;;;;;;4957542;29;20109;-81
2023/01/17 13:31:15;;;;;;;84.82;40.20;;;11.20;99.90;;;;;;4957512;29;20023;-80
2023/01/17 13:34:02;;;;;;;74.85;33.92;;;11.20;99.90;;;;;;4955802;29;20111;-80
2023/01/17 13:36:59;;;;;;;100.72;45.95;;;11.20;99.90;;;;;;4957439;29;20042;-81
2023/01/17 13:40:01;;;;;;;94.97;42.63;;;11.20;99.90;;;;;;4957169;29;20027;-81
2023/01/17 13:42:38;;;;;;;54.50;26.95;;;11.10;99.90;;;;;;4956995;29;20023;-81
2023/01/17 13:45:16;;;;;;;87.90;40.90;;;11.10;99.90;;;;;;4957230;29;20031;-81
2023/01/17 13:47:42;;;;;;;93.70;42.10;;;11.10;99.90;;;;;;4955873;29;20575;-80
2023/01/17 13:50:37;;;;;;;117.65;51.85;;;11.10;99.90;;;;;;4938565;28;20058;-80
2023/01/17 13:53:27;;;;;;;80.38;35.38;;;11.20;99.90;;;;;;4921184;29;20032;-79
2023/01/17 13:56:34;;;;;;;135.82;59.03;;;11.20;99.90;;;;;;4954318;29;20030;-81
2023/01/17 13:59:02;;;;;;;86.10;43.95;;;11.20;99.90;;;;;;4853480;29;20516;-82
2023/01/17 14:01:30;;;;;;;66.95;29.30;;;11.20;99.90;;;;;;4849459;29;20495;-80
2023/01/17 14:04:03;;;;;;;69.82;33.38;;;11.30;99.90;;;;;;4850298;29;20070;-80
2023/01/17 14:06:39;;;;;;;65.75;32.70;;;11.20;99.90;;;;;;4871771;29;20056;-80
2023/01/17 14:09:14;;;;;;;105.38;53.65;;;11.30;99.90;;;;;;4869520;29;20029;-81
2023/01/17 14:12:21;;;;;;;98.15;50.65;;;11.30;99.90;;;;;;4847954;29;20045;-80
2023/01/17 14:14:50;;;;;;;99.88;49.75;;;11.30;99.90;;;;;;4845988;29;20034;-82
2023/01/17 14:17:25;;;;;;;127.93;64.25;;;11.20;99.90;;;;;;4872609;29;20459;-81